createdAt,value
2018-03-16T00:01:32.073Z,83.90
2018-03-16T00:03:58.364Z,83.89
2018-03-16T00:06:24.476Z,83.77
2018-03-16T00:08:50.530Z,83.79
2018-03-16T00:11:16.604Z,83.81
2018-03-16T00:13:42.666Z,83.94
2018-03-16T00:16:08.740Z,83.81
2018-03-16T00:18:34.816Z,83.87
2018-03-16T00:21:00.907Z,83.92
2018-03-16T00:23:26.938Z,83.88
2018-03-16T00:25:53.030Z,84.09
2018-03-16T00:28:19.140Z,83.88
2018-03-16T00:30:45.153Z,84.03
2018-03-16T00:33:11.208Z,83.90
2018-03-16T00:35:37.417Z,84.09
2018-03-16T00:38:03.477Z,84.02
2018-03-16T00:40:29.551Z,84.12
2018-03-16T00:42:56.025Z,84.13
2018-03-16T00:45:22.126Z,84.11
2018-03-16T00:47:48.146Z,84.19
2018-03-16T00:50:14.179Z,84.08
2018-03-16T00:52:40.240Z,84.01
2018-03-16T00:55:06.325Z,84.03
2018-03-16T00:57:32.364Z,84.10
2018-03-16T00:59:58.766Z,84.04
2018-03-16T01:02:24.802Z,83.96
2018-03-16T01:04:50.928Z,84.00
2018-03-16T01:07:17.066Z,83.94
2018-03-16T01:09:43.103Z,83.91
2018-03-16T01:12:09.160Z,84.13
2018-03-16T01:14:35.202Z,84.08
2018-03-16T01:17:01.234Z,84.10
2018-03-16T01:19:27.346Z,84.15
2018-03-16T01:21:53.402Z,84.25
2018-03-16T01:24:19.473Z,84.20
2018-03-16T01:26:45.507Z,84.21
2018-03-16T01:29:11.612Z,84.27
2018-03-16T01:31:37.699Z,84.18
2018-03-16T01:34:03.897Z,84.44
2018-03-16T01:36:29.948Z,84.62
2018-03-16T01:38:56.129Z,84.67
2018-03-16T01:41:22.193Z,84.69
2018-03-16T01:43:48.240Z,84.54
2018-03-16T01:46:14.346Z,84.56
2018-03-16T01:48:40.376Z,84.52
2018-03-16T01:51:06.715Z,84.76
2018-03-16T01:53:32.767Z,84.83
2018-03-16T01:55:58.795Z,84.94
2018-03-16T01:58:24.869Z,84.79
2018-03-16T02:00:50.901Z,84.71
2018-03-16T02:03:17.051Z,84.63
2018-03-16T02:05:43.327Z,84.70
2018-03-16T02:08:09.408Z,84.70
2018-03-16T02:10:35.446Z,84.82
2018-03-16T02:13:01.507Z,84.80
2018-03-16T02:15:27.634Z,84.72
2018-03-16T02:17:53.694Z,84.64
2018-03-16T02:20:19.709Z,84.72
2018-03-16T02:22:45.862Z,84.69
2018-03-16T02:25:11.924Z,84.80
2018-03-16T02:27:37.952Z,84.92
2018-03-16T02:30:03.998Z,84.89
2018-03-16T02:32:30.067Z,84.89
2018-03-16T02:34:56.177Z,84.94
2018-03-16T02:37:22.215Z,84.94
2018-03-16T02:39:48.369Z,84.95
2018-03-16T02:42:14.457Z,85.04
2018-03-16T02:44:40.503Z,85.10
2018-03-16T02:47:06.666Z,85.10
2018-03-16T02:49:32.670Z,85.10
2018-03-16T02:51:58.703Z,85.24
2018-03-16T02:54:24.806Z,85.36
2018-03-16T02:56:51.016Z,85.33
2018-03-16T02:59:17.099Z,85.40
2018-03-16T03:01:43.150Z,85.32
2018-03-16T03:04:09.236Z,85.42
2018-03-16T03:06:35.305Z,85.50
2018-03-16T03:09:01.339Z,85.61
2018-03-16T03:11:27.391Z,85.66
2018-03-16T03:13:53.791Z,85.53
2018-03-16T03:16:19.817Z,85.50
2018-03-16T03:18:45.853Z,85.48
2018-03-16T03:21:12.078Z,85.45
2018-03-16T03:23:38.132Z,85.57
2018-03-16T03:26:04.187Z,85.82
2018-03-16T03:28:30.206Z,85.84
2018-03-16T03:30:56.283Z,85.83
2018-03-16T03:33:22.402Z,86.05
2018-03-16T03:35:48.452Z,86.01
2018-03-16T03:38:14.628Z,85.85
2018-03-16T03:40:40.724Z,85.90
2018-03-16T03:43:06.766Z,85.81
2018-03-16T03:45:32.797Z,85.78
2018-03-16T03:47:58.835Z,85.95
2018-03-16T03:50:24.956Z,85.95
2018-03-16T03:52:51.043Z,85.93
2018-03-16T03:55:17.098Z,85.96
2018-03-16T03:57:43.127Z,85.98
2018-03-16T04:00:09.185Z,85.92
2018-03-16T04:02:35.198Z,86.08
2018-03-16T04:05:01.311Z,86.08
2018-03-16T04:07:27.343Z,86.13
2018-03-16T04:09:53.390Z,86.09
2018-03-16T04:12:19.568Z,86.12
2018-03-16T04:14:45.628Z,86.18
2018-03-16T04:17:11.669Z,86.13
2018-03-16T04:19:37.717Z,86.22
2018-03-16T04:22:04.141Z,86.27
2018-03-16T04:24:30.284Z,86.42
2018-03-16T04:26:56.323Z,86.40
2018-03-16T04:29:22.380Z,86.44
2018-03-16T04:31:48.462Z,86.40
2018-03-16T04:34:14.508Z,86.38
2018-03-16T04:36:40.565Z,86.32
2018-03-16T04:39:06.858Z,86.42
2018-03-16T04:41:32.988Z,86.61
2018-03-16T04:43:59.050Z,86.63
2018-03-16T04:46:25.202Z,86.68
2018-03-16T04:48:51.276Z,86.75
2018-03-16T04:51:17.325Z,86.68
2018-03-16T04:53:43.373Z,86.70
2018-03-16T04:56:09.805Z,86.71
2018-03-16T04:58:35.843Z,86.65
2018-03-16T05:01:01.899Z,86.65
2018-03-16T05:03:28.035Z,86.70
2018-03-16T05:05:54.081Z,86.88
2018-03-16T05:08:20.356Z,86.76
2018-03-16T05:10:46.419Z,86.59
2018-03-16T05:13:12.484Z,86.51
2018-03-16T05:15:38.584Z,86.57
2018-03-16T05:18:04.586Z,86.46
2018-03-16T05:20:30.687Z,86.53
2018-03-16T05:22:56.778Z,86.57
2018-03-16T05:25:22.810Z,86.65
2018-03-16T05:27:48.874Z,86.59
2018-03-16T05:30:14.924Z,86.47
2018-03-16T05:32:41.015Z,86.51
2018-03-16T05:35:07.062Z,86.35
2018-03-16T05:37:33.122Z,86.50
2018-03-16T05:39:59.155Z,86.49
2018-03-16T05:42:25.234Z,86.31
2018-03-16T05:44:51.421Z,86.25
2018-03-16T05:47:17.507Z,86.24
2018-03-16T05:49:43.577Z,86.23
2018-03-16T05:52:09.797Z,86.33
2018-03-16T05:54:35.834Z,86.30
2018-03-16T05:57:02.041Z,86.20
2018-03-16T05:59:28.116Z,86.17
2018-03-16T06:01:54.155Z,86.36
2018-03-16T06:04:20.222Z,86.54
2018-03-16T06:06:46.242Z,86.61
2018-03-16T06:09:12.327Z,86.87
2018-03-16T06:11:38.392Z,86.95
2018-03-16T06:14:04.439Z,87.22
2018-03-16T06:16:30.506Z,87.55
2018-03-16T06:18:56.542Z,87.76
2018-03-16T06:21:22.584Z,87.91
2018-03-16T06:23:48.668Z,88.18
2018-03-16T06:26:14.716Z,88.45
2018-03-16T06:28:40.802Z,88.62
2018-03-16T06:31:06.833Z,88.90
2018-03-16T06:33:32.856Z,88.91
2018-03-16T06:35:59.072Z,88.85
2018-03-16T06:38:25.156Z,89.04
2018-03-16T06:40:51.216Z,89.08
2018-03-16T06:43:17.266Z,89.05
2018-03-16T06:45:43.315Z,89.01
2018-03-16T06:48:09.419Z,88.98
2018-03-16T06:50:35.451Z,88.98
2018-03-16T06:53:01.505Z,89.03
2018-03-16T06:55:27.550Z,89.15
2018-03-16T06:57:53.636Z,89.44
2018-03-16T07:00:19.665Z,89.57
2018-03-16T07:02:45.782Z,89.86
2018-03-16T07:05:11.889Z,90.23
2018-03-16T07:07:37.923Z,90.67
2018-03-16T07:10:03.966Z,91.05
2018-03-16T07:12:30.031Z,91.39
2018-03-16T07:14:56.070Z,91.63
2018-03-16T07:17:22.121Z,91.85
2018-03-16T07:19:48.194Z,92.04
2018-03-16T07:22:14.226Z,92.41
2018-03-16T07:24:40.307Z,92.25
2018-03-16T07:27:06.342Z,92.37
2018-03-16T07:29:32.394Z,92.60
2018-03-16T07:31:58.456Z,92.79
2018-03-16T07:34:24.552Z,92.97
2018-03-16T07:36:50.646Z,93.10
2018-03-16T07:39:16.674Z,93.18
2018-03-16T07:41:42.739Z,93.41
2018-03-16T07:44:08.905Z,93.44
2018-03-16T07:46:34.962Z,93.51
2018-03-16T07:49:01.020Z,93.43
2018-03-16T07:51:27.224Z,93.47
2018-03-16T07:53:53.258Z,93.50
2018-03-16T07:56:19.360Z,93.62
2018-03-16T07:58:46.368Z,93.60
2018-03-16T08:01:12.397Z,93.41
2018-03-16T08:03:38.630Z,93.37
2018-03-16T08:06:04.695Z,93.21
2018-03-16T08:08:30.738Z,93.00
2018-03-16T08:10:56.813Z,92.84
2018-03-16T08:13:23.207Z,92.73
2018-03-16T08:15:49.214Z,92.66
2018-03-16T08:18:15.245Z,92.53
2018-03-16T08:20:41.464Z,92.50
2018-03-16T08:23:07.488Z,92.21
2018-03-16T08:25:33.715Z,92.04
2018-03-16T08:27:59.945Z,91.99
2018-03-16T08:30:26.019Z,91.83
2018-03-16T08:32:52.103Z,91.77
2018-03-16T08:35:18.158Z,91.75
2018-03-16T08:37:44.235Z,91.63
2018-03-16T08:40:10.265Z,91.68
2018-03-16T08:42:51.221Z,91.64
2018-03-16T08:45:17.230Z,91.81
2018-03-16T08:47:43.493Z,91.85
2018-03-16T08:50:09.544Z,92.00
2018-03-16T08:52:35.597Z,92.14
2018-03-16T08:55:01.634Z,92.06
2018-03-16T08:57:27.664Z,92.05
2018-03-16T08:59:53.717Z,92.00
2018-03-16T09:02:19.839Z,91.80
2018-03-16T09:04:45.938Z,91.50
2018-03-16T09:07:12.040Z,91.38
2018-03-16T09:09:38.304Z,91.15
2018-03-16T09:12:04.336Z,90.96
2018-03-16T09:14:30.473Z,90.74
2018-03-16T09:16:56.516Z,90.58
2018-03-16T09:19:22.583Z,90.53
2018-03-16T09:21:48.622Z,90.08
2018-03-16T09:24:14.807Z,89.98
2018-03-16T09:26:40.873Z,89.72
2018-03-16T09:29:07.491Z,89.46
2018-03-16T09:31:33.538Z,89.40
2018-03-16T09:33:59.685Z,89.39
2018-03-16T09:36:25.776Z,89.21
2018-03-16T09:38:51.914Z,89.14
2018-03-16T09:41:18.211Z,89.19
2018-03-16T09:43:44.259Z,89.02
2018-03-16T09:46:10.308Z,89.12
2018-03-16T09:48:36.412Z,89.15
2018-03-16T09:51:02.448Z,88.86
2018-03-16T09:53:28.870Z,88.85
2018-03-16T09:55:54.930Z,89.17
2018-03-16T09:58:21.165Z,89.48
2018-03-16T10:00:47.272Z,89.74
2018-03-16T10:03:13.339Z,89.99
2018-03-16T10:05:39.419Z,90.57
2018-03-16T10:08:05.458Z,90.68
2018-03-16T10:10:31.647Z,90.92
2018-03-16T10:12:57.744Z,91.39
2018-03-16T10:15:23.847Z,91.73
2018-03-16T10:17:49.906Z,92.06
2018-03-16T10:20:15.965Z,92.22
2018-03-16T10:22:42.017Z,92.12
2018-03-16T10:25:08.036Z,92.12
2018-03-16T10:27:34.098Z,92.23
2018-03-16T10:30:00.191Z,92.23
2018-03-16T10:32:26.317Z,92.34
2018-03-16T10:34:52.327Z,92.44
2018-03-16T10:37:18.365Z,92.11
2018-03-16T10:39:44.541Z,92.29
2018-03-16T10:42:10.604Z,92.38
2018-03-16T10:44:36.669Z,92.64
2018-03-16T10:47:02.728Z,92.83
2018-03-16T10:49:28.797Z,93.23
2018-03-16T10:51:54.897Z,93.42
2018-03-16T10:54:20.958Z,93.64
2018-03-16T10:56:47.108Z,93.93
2018-03-16T10:59:13.173Z,94.25
2018-03-16T11:01:45.297Z,94.42
2018-03-16T11:04:13.359Z,94.63
2018-03-16T11:06:39.415Z,94.87
2018-03-16T11:09:05.501Z,95.06
2018-03-16T11:11:31.573Z,95.30
2018-03-16T11:13:57.628Z,95.56
2018-03-16T11:16:23.703Z,95.60
2018-03-16T11:18:49.760Z,95.83
2018-03-16T11:21:15.808Z,95.99
2018-03-16T11:23:41.849Z,96.12
2018-03-16T11:26:08.043Z,96.19
2018-03-16T11:28:34.079Z,96.29
2018-03-16T11:31:00.132Z,96.39
2018-03-16T11:33:26.394Z,96.51
2018-03-16T11:35:52.484Z,96.65
2018-03-16T11:38:18.539Z,96.63
2018-03-16T11:40:44.646Z,96.75
2018-03-16T11:43:10.705Z,96.82
2018-03-16T11:45:36.742Z,96.85
2018-03-16T11:48:02.956Z,96.77
2018-03-16T11:50:28.999Z,96.86
2018-03-16T11:52:55.689Z,96.88
2018-03-16T11:55:21.802Z,96.91
2018-03-16T11:57:48.057Z,97.01
2018-03-16T12:00:14.201Z,97.16
2018-03-16T12:02:40.536Z,97.21
2018-03-16T12:05:06.693Z,97.26
2018-03-16T12:07:32.698Z,97.31
2018-03-16T12:09:58.855Z,97.29
2018-03-16T12:12:24.934Z,97.29
2018-03-16T12:14:51.010Z,97.29
2018-03-16T12:17:17.059Z,97.39
2018-03-16T12:19:43.109Z,97.46
2018-03-16T12:22:09.125Z,97.49
2018-03-16T12:24:35.160Z,97.44
2018-03-16T12:27:01.253Z,97.50
2018-03-16T12:29:27.277Z,97.50
2018-03-16T12:31:53.383Z,97.61
2018-03-16T12:34:34.311Z,97.57
2018-03-16T12:37:00.693Z,97.66
2018-03-16T12:39:26.742Z,97.67
2018-03-16T12:41:52.817Z,97.77
2018-03-16T12:44:18.905Z,97.86
2018-03-16T12:46:44.934Z,97.86
2018-03-16T12:49:11.170Z,97.85
2018-03-16T12:51:42.191Z,97.96
2018-03-16T12:54:03.431Z,98.10
2018-03-16T12:56:29.528Z,97.92
2018-03-16T12:58:55.582Z,97.92
2018-03-16T13:01:21.656Z,97.89
2018-03-16T13:03:47.731Z,97.88
2018-03-16T13:06:13.978Z,97.86
2018-03-16T13:08:40.028Z,97.86
2018-03-16T13:11:06.130Z,97.86
2018-03-16T13:13:32.166Z,97.89
2018-03-16T13:15:58.411Z,97.99
2018-03-16T13:18:24.474Z,98.04
2018-03-16T13:20:50.513Z,98.10
2018-03-16T13:23:16.629Z,97.96
2018-03-16T13:25:42.667Z,97.84
2018-03-16T13:28:08.770Z,97.85
2018-03-16T13:33:28.171Z,97.78
2018-03-16T13:35:54.246Z,97.67
2018-03-16T13:38:20.303Z,97.66
2018-03-16T13:40:46.581Z,97.63
2018-03-16T13:43:12.679Z,97.55
2018-03-16T13:45:38.755Z,97.36
2018-03-16T13:48:04.813Z,97.39
2018-03-16T13:50:31.076Z,97.44
2018-03-16T13:52:57.133Z,97.39
2018-03-16T13:55:23.768Z,97.33
2018-03-16T13:57:49.821Z,97.21
2018-03-16T14:00:15.898Z,97.05
2018-03-16T14:02:41.935Z,97.10
2018-03-16T14:05:08.028Z,97.16
2018-03-16T14:07:34.072Z,97.05
2018-03-16T14:10:00.133Z,97.03
2018-03-16T14:12:26.308Z,96.96
2018-03-16T14:14:52.397Z,96.90
2018-03-16T14:17:18.463Z,96.95
2018-03-16T14:19:44.549Z,96.89
2018-03-16T14:22:10.883Z,96.87
2018-03-16T14:24:36.939Z,96.90
2018-03-16T14:27:03.026Z,97.14
2018-03-16T14:29:29.063Z,97.19
2018-03-16T14:31:55.131Z,97.28
2018-03-16T14:34:21.332Z,97.38
2018-03-16T14:36:47.366Z,97.51
2018-03-16T14:39:13.406Z,97.57
2018-03-16T14:41:39.472Z,97.73
2018-03-16T14:44:05.587Z,97.80
2018-03-16T14:46:31.650Z,97.77
2018-03-16T14:48:57.735Z,97.90
2018-03-16T14:51:23.795Z,97.89
2018-03-16T14:53:49.976Z,97.97
2018-03-16T14:56:16.170Z,98.02
2018-03-16T14:58:42.215Z,98.01
2018-03-16T15:01:08.321Z,97.96
2018-03-16T15:03:34.436Z,97.98
2018-03-16T15:06:00.615Z,97.98
2018-03-16T15:08:26.661Z,97.99
2018-03-16T15:10:52.740Z,98.03
2018-03-16T15:13:18.835Z,98.08
2018-03-16T15:15:44.889Z,98.16
2018-03-16T15:18:10.973Z,98.05
2018-03-16T15:20:37.147Z,97.96
2018-03-16T15:23:03.229Z,98.03
2018-03-16T15:25:29.308Z,98.17
2018-03-16T15:27:55.383Z,98.29
2018-03-16T15:30:21.498Z,98.27
2018-03-16T15:32:47.682Z,98.37
2018-03-16T15:35:13.783Z,98.36
2018-03-16T15:37:39.841Z,98.53
2018-03-16T15:40:05.881Z,98.62
2018-03-16T15:42:31.964Z,98.77
2018-03-16T15:44:58.043Z,98.83
2018-03-16T15:47:24.128Z,98.87
2018-03-16T15:49:50.326Z,98.93
2018-03-16T15:52:16.429Z,98.86
2018-03-16T15:54:42.646Z,98.91
2018-03-16T15:57:08.735Z,98.99
2018-03-16T15:59:35.050Z,98.91
2018-03-16T16:02:01.135Z,98.96
2018-03-16T16:04:27.222Z,98.84
2018-03-16T16:06:53.315Z,98.68
2018-03-16T16:09:19.405Z,98.63
2018-03-16T16:11:45.454Z,98.49
2018-03-16T16:14:11.547Z,98.37
2018-03-16T16:16:37.603Z,98.32
2018-03-16T16:19:03.722Z,98.18
2018-03-16T16:21:29.862Z,98.00
2018-03-16T16:23:55.913Z,97.87
2018-03-16T16:26:22.103Z,97.76
2018-03-16T16:28:48.236Z,97.52
2018-03-16T16:31:14.334Z,97.17
2018-03-16T16:33:40.410Z,96.80
2018-03-16T16:36:06.617Z,96.54
2018-03-16T16:38:32.740Z,96.32
2018-03-16T16:40:58.799Z,96.06
2018-03-16T16:43:24.964Z,95.83
2018-03-16T16:45:51.045Z,95.72
2018-03-16T16:48:17.145Z,95.70
2018-03-16T16:50:43.203Z,95.44
2018-03-16T16:53:09.308Z,95.31
2018-03-16T16:55:35.363Z,95.25
2018-03-16T16:58:01.414Z,95.18
2018-03-16T17:00:27.521Z,95.19
2018-03-16T17:02:54.439Z,95.29
2018-03-16T17:05:20.550Z,95.28
2018-03-16T17:07:46.605Z,95.23
2018-03-16T17:10:12.889Z,95.21
2018-03-16T17:12:38.974Z,95.15
2018-03-16T17:15:05.666Z,95.26
2018-03-16T17:17:31.802Z,95.38
2018-03-16T17:19:57.887Z,95.50
2018-03-16T17:22:24.009Z,95.58
2018-03-16T17:24:50.103Z,95.75
2018-03-16T17:27:16.247Z,95.78
2018-03-16T17:29:42.388Z,95.90
2018-03-16T17:32:08.478Z,95.90
2018-03-16T17:34:34.508Z,95.94
2018-03-16T17:37:04.780Z,96.05
2018-03-16T17:39:30.958Z,96.13
2018-03-16T17:41:57.180Z,96.21
2018-03-16T17:44:23.290Z,96.28
2018-03-16T17:46:49.374Z,96.37
2018-03-16T17:49:15.488Z,96.34
2018-03-16T17:51:41.564Z,96.43
2018-03-16T17:54:07.993Z,96.48
2018-03-16T17:56:34.039Z,96.61
2018-03-16T17:59:00.084Z,96.66
2018-03-16T18:01:26.198Z,96.76
2018-03-16T18:03:52.303Z,96.88
2018-03-16T18:06:18.379Z,96.82
2018-03-16T18:08:45.052Z,96.94
2018-03-16T18:11:11.146Z,96.98
2018-03-16T18:13:37.235Z,97.16
2018-03-16T18:16:18.202Z,97.26
2018-03-16T18:18:44.380Z,97.38
2018-03-16T18:21:10.487Z,97.53
2018-03-16T18:23:36.568Z,97.54
2018-03-16T18:26:02.620Z,97.59
2018-03-16T18:28:30.106Z,97.68
2018-03-16T18:30:56.270Z,97.80
2018-03-16T18:33:22.367Z,97.87
2018-03-16T18:35:48.489Z,97.85
2018-03-16T18:38:14.564Z,97.94
2018-03-16T18:40:40.650Z,97.83
2018-03-16T18:43:07.566Z,97.95
2018-03-16T18:45:33.641Z,97.97
2018-03-16T18:47:59.749Z,97.99
2018-03-16T18:50:26.444Z,98.05
2018-03-16T18:52:53.362Z,98.09
2018-03-16T18:55:19.456Z,97.98
2018-03-16T18:57:45.553Z,97.91
2018-03-16T19:00:11.720Z,97.84
2018-03-16T19:02:37.898Z,97.82
2018-03-16T19:05:03.994Z,97.67
2018-03-16T19:07:30.084Z,97.60
2018-03-16T19:09:56.523Z,97.46
2018-03-16T19:12:22.624Z,97.43
2018-03-16T19:14:48.739Z,97.19
2018-03-16T19:17:14.863Z,97.16
2018-03-16T19:19:40.962Z,97.11
2018-03-16T19:22:07.594Z,96.99
2018-03-16T19:24:33.758Z,96.61
2018-03-16T19:26:59.873Z,96.59
2018-03-16T19:29:26.764Z,96.57
2018-03-16T19:31:53.239Z,96.37
2018-03-16T19:34:19.324Z,96.26
2018-03-16T19:36:45.462Z,96.17
2018-03-16T19:39:11.731Z,96.23
2018-03-16T19:41:37.827Z,96.17
2018-03-16T19:44:03.994Z,96.12
2018-03-16T19:46:30.054Z,96.05
2018-03-16T19:48:56.716Z,96.06
2018-03-16T19:51:23.201Z,96.11
2018-03-16T19:53:49.345Z,96.12
2018-03-16T19:56:15.387Z,96.21
2018-03-16T19:58:42.466Z,96.19
2018-03-16T20:01:08.535Z,96.30
2018-03-16T20:03:34.786Z,96.29
2018-03-16T20:06:00.920Z,96.31
2018-03-16T20:08:27.073Z,96.37
2018-03-16T20:10:53.158Z,96.38
2018-03-16T20:13:19.593Z,96.45
2018-03-16T20:15:45.676Z,96.49
2018-03-16T20:18:11.707Z,96.49
2018-03-16T20:20:37.796Z,96.47
2018-03-16T20:23:04.300Z,96.41
2018-03-16T20:25:30.480Z,96.49
2018-03-16T20:27:56.591Z,96.56
2018-03-16T20:30:22.859Z,96.57
2018-03-16T20:32:48.986Z,96.64
2018-03-16T20:35:15.098Z,96.64
2018-03-16T20:37:41.212Z,96.72
2018-03-16T20:40:07.413Z,96.77
2018-03-16T20:42:33.511Z,96.92
2018-03-16T20:44:59.838Z,96.90
2018-03-16T20:47:25.918Z,96.95
2018-03-16T20:49:52.004Z,96.92
2018-03-16T20:52:18.228Z,97.04
2018-03-16T20:54:44.278Z,97.05
2018-03-16T20:57:10.395Z,97.02
2018-03-16T20:59:36.491Z,97.03
2018-03-16T21:02:03.340Z,97.00
2018-03-16T21:04:30.545Z,96.95
2018-03-16T21:06:56.605Z,96.90
2018-03-16T21:09:22.710Z,96.85
2018-03-16T21:11:48.931Z,96.68
2018-03-16T21:14:14.971Z,96.40
2018-03-16T21:16:41.943Z,96.25
2018-03-16T21:19:08.093Z,96.30
2018-03-16T21:21:34.225Z,96.27
2018-03-16T21:24:00.344Z,96.27
2018-03-16T21:26:26.528Z,96.31
2018-03-16T21:28:53.394Z,96.38
2018-03-16T21:31:19.519Z,96.49
2018-03-16T21:33:46.519Z,96.63
2018-03-16T21:36:13.616Z,96.74
2018-03-16T21:38:39.781Z,96.91
2018-03-16T21:41:06.078Z,97.11
2018-03-16T21:43:32.160Z,97.28
2018-03-16T21:45:58.214Z,97.36
2018-03-16T21:48:24.314Z,97.49
2018-03-16T21:50:50.400Z,97.64
2018-03-16T21:53:16.527Z,97.77
2018-03-16T21:55:42.613Z,97.93
2018-03-16T21:58:08.698Z,97.95
2018-03-16T22:00:34.836Z,98.14
2018-03-16T22:03:00.892Z,98.16
2018-03-16T22:05:26.962Z,98.23
2018-03-16T22:07:53.155Z,98.36
2018-03-16T22:10:19.206Z,98.24
2018-03-16T22:12:45.289Z,98.32
2018-03-16T22:15:11.428Z,98.25
2018-03-16T22:17:37.561Z,98.16
2018-03-16T22:20:03.602Z,98.13
2018-03-16T22:22:29.666Z,98.09
2018-03-16T22:24:55.758Z,98.05
2018-03-16T22:27:21.815Z,97.87
2018-03-16T22:29:47.937Z,97.88
2018-03-16T22:32:14.051Z,97.84
2018-03-16T22:34:40.158Z,97.80
2018-03-16T22:37:06.245Z,97.77
2018-03-16T22:39:32.303Z,97.62
2018-03-16T22:41:58.499Z,97.53
2018-03-16T22:44:24.548Z,97.49
2018-03-16T22:46:50.620Z,97.28
2018-03-16T22:49:16.716Z,97.18
2018-03-16T22:51:42.762Z,97.04
2018-03-16T22:54:08.875Z,96.95
2018-03-16T22:56:34.962Z,96.80
2018-03-16T22:59:01.030Z,96.78
2018-03-16T23:01:27.211Z,96.69
2018-03-16T23:03:53.264Z,96.69
2018-03-16T23:06:19.356Z,96.60
2018-03-16T23:08:45.370Z,96.61
2018-03-16T23:11:11.505Z,96.58
2018-03-16T23:13:37.614Z,96.50
2018-03-16T23:16:03.656Z,96.23
2018-03-16T23:18:29.747Z,96.13
2018-03-16T23:20:55.889Z,95.99
2018-03-16T23:23:21.937Z,95.78
2018-03-16T23:25:47.990Z,95.71
2018-03-16T23:28:14.056Z,95.60
2018-03-16T23:30:40.134Z,95.45
2018-03-16T23:33:06.225Z,95.33
2018-03-16T23:35:32.291Z,95.31
2018-03-16T23:37:58.380Z,95.30
2018-03-16T23:40:24.449Z,95.37
2018-03-16T23:42:50.597Z,95.33
2018-03-16T23:45:16.650Z,95.39
2018-03-16T23:47:42.710Z,95.47
2018-03-16T23:50:08.752Z,95.44
2018-03-16T23:52:34.806Z,95.58
2018-03-16T23:55:00.919Z,95.68
2018-03-16T23:57:26.979Z,95.81
2018-03-16T23:59:53.045Z,95.96
